Terminal Aerodrome Forecast
Issued by NWS

Home | Current Version | Previous Version | Text Only | Print | Product List | Glossary On
Versions: 1 2 3 4 5 6 7 8 9 10 11 12 13
000
FTAK31 PAFA 202340
TAFATA
TAF
PATA 202340Z 2100/2124 11010KT P6SM BKN080
     FM210600 05010G16KT P6SM VCSH BKN050 OVC100
     FM211800 10015G22KT P6SM BKN100=

USA.gov is the U.S. government's official web portal to all federal, state and local government web resources and services.